createdAt,value
2022-12-16T00:00:30.258Z,54.15
2022-12-16T00:03:02.429Z,61.10
2022-12-16T00:05:42.670Z,54.78
2022-12-16T00:08:16.266Z,55.83
2022-12-16T00:10:54.928Z,52.53
2022-12-16T00:13:28.742Z,56.72
2022-12-16T00:16:04.229Z,66.05
2022-12-16T00:18:36.826Z,82.68
2022-12-16T00:21:09.696Z,92.80
2022-12-16T00:23:44.594Z,77.72
2022-12-16T00:26:16.580Z,72.38
2022-12-16T00:28:48.511Z,48.65
2022-12-16T00:31:20.421Z,47.40
2022-12-16T00:33:56.594Z,54.90
2022-12-16T00:36:28.539Z,52.47
2022-12-16T00:39:00.662Z,50.15
2022-12-16T00:41:32.697Z,44.58
2022-12-16T00:44:05.252Z,47.42
2022-12-16T00:46:37.217Z,52.22
2022-12-16T00:49:09.612Z,53.13
2022-12-16T00:51:41.599Z,64.15
2022-12-16T00:54:16.366Z,57.17
2022-12-16T00:56:48.350Z,50.35
2022-12-16T00:59:20.318Z,48.42
2022-12-16T01:01:52.477Z,49.40
2022-12-16T01:04:26.975Z,49.83
2022-12-16T01:06:58.905Z,46.80
2022-12-16T01:09:30.924Z,46.42
2022-12-16T01:12:03.105Z,46.45
2022-12-16T01:14:35.120Z,45.50
2022-12-16T01:17:07.141Z,46.97
2022-12-16T01:19:39.175Z,43.17
2022-12-16T01:22:12.352Z,44.92
2022-12-16T01:24:45.072Z,44.30
2022-12-16T01:27:17.808Z,43.45
2022-12-16T01:29:50.598Z,45.40
2022-12-16T01:32:23.001Z,43.70
2022-12-16T01:34:55.788Z,43.78
2022-12-16T01:37:27.938Z,45.80
2022-12-16T01:39:59.934Z,46.80
2022-12-16T01:42:33.924Z,47.13
2022-12-16T01:45:33.528Z,45.30
2022-12-16T01:48:31.099Z,48.00
2022-12-16T01:51:12.544Z,50.05
2022-12-16T01:53:46.578Z,47.67
2022-12-16T01:56:22.300Z,48.88
2022-12-16T01:58:55.232Z,46.50
2022-12-16T02:01:32.422Z,45.95
2022-12-16T02:04:04.970Z,49.55
2022-12-16T02:06:37.287Z,49.28
2022-12-16T02:09:12.042Z,45.22
2022-12-16T02:12:04.944Z,45.75
2022-12-16T02:14:54.430Z,48.33
2022-12-16T02:17:46.661Z,45.83
2022-12-16T02:20:45.124Z,45.70
2022-12-16T02:23:36.181Z,45.33
2022-12-16T02:26:21.178Z,44.92
2022-12-16T02:29:02.201Z,46.88
2022-12-16T02:31:43.941Z,46.45
2022-12-16T02:34:27.605Z,45.38
2022-12-16T02:37:20.739Z,44.63
2022-12-16T02:40:01.408Z,44.90
2022-12-16T02:42:42.395Z,48.13
2022-12-16T02:45:21.828Z,45.80
2022-12-16T02:47:54.003Z,44.40
2022-12-16T02:50:38.453Z,44.17
2022-12-16T02:53:10.906Z,44.33
2022-12-16T02:56:13.552Z,43.38
2022-12-16T02:59:06.980Z,45.67
2022-12-16T03:02:00.462Z,44.20
2022-12-16T03:04:40.667Z,41.55
2022-12-16T03:07:16.058Z,43.63
2022-12-16T03:09:49.719Z,42.50
2022-12-16T03:12:23.380Z,44.35
2022-12-16T03:14:55.855Z,44.70
2022-12-16T03:17:29.477Z,42.88
2022-12-16T03:20:27.072Z,45.13
2022-12-16T03:23:03.342Z,41.90
2022-12-16T03:25:39.361Z,43.08
2022-12-16T03:28:23.604Z,44.92
2022-12-16T03:31:29.792Z,41.75
2022-12-16T03:34:12.612Z,43.17
2022-12-16T03:36:49.873Z,42.50
2022-12-16T03:39:24.204Z,43.20
2022-12-16T03:41:57.624Z,43.63
2022-12-16T03:44:29.917Z,47.03
2022-12-16T03:47:02.113Z,47.25
2022-12-16T03:49:34.197Z,47.63
2022-12-16T03:52:06.798Z,51.10
2022-12-16T03:54:38.813Z,50.13
2022-12-16T03:57:15.473Z,48.13
2022-12-16T03:59:47.855Z,46.90
2022-12-16T04:02:19.797Z,47.30
2022-12-16T04:04:51.857Z,48.97
2022-12-16T04:07:24.957Z,48.95
2022-12-16T04:09:57.120Z,50.03
2022-12-16T04:12:47.384Z,48.78
2022-12-16T04:15:38.041Z,44.58
2022-12-16T04:18:35.301Z,44.60
2022-12-16T04:21:26.173Z,42.67
2022-12-16T04:24:16.810Z,47.70
2022-12-16T04:30:05.917Z,47.35
2022-12-16T04:35:47.447Z,46.47
2022-12-16T04:41:29.767Z,49.10
2022-12-16T04:44:20.447Z,50.90
2022-12-16T04:50:01.415Z,42.40
2022-12-16T04:55:42.305Z,52.90
2022-12-16T04:58:32.985Z,55.78
2022-12-16T05:01:24.068Z,52.70
2022-12-16T05:04:14.853Z,55.75
2022-12-16T05:09:56.191Z,56.75
2022-12-16T05:12:46.978Z,58.67
2022-12-16T05:15:37.760Z,54.67
2022-12-16T05:18:30.541Z,58.28
2022-12-16T05:21:22.179Z,63.35
2022-12-16T05:24:12.730Z,59.83
2022-12-16T05:27:03.428Z,56.38
2022-12-16T05:29:54.194Z,52.75
2022-12-16T05:35:35.257Z,54.30
2022-12-16T05:38:26.196Z,52.17
2022-12-16T05:41:16.560Z,52.15
2022-12-16T05:44:07.161Z,51.03
2022-12-16T05:46:58.109Z,50.47
2022-12-16T05:49:48.965Z,56.63
2022-12-16T05:52:42.847Z,52.33
2022-12-16T05:55:34.286Z,51.53
2022-12-16T05:58:24.910Z,50.63
2022-12-16T06:01:15.680Z,49.65
2022-12-16T06:04:06.267Z,50.05
2022-12-16T06:09:50.563Z,49.55
2022-12-16T06:12:45.605Z,50.53
2022-12-16T06:15:36.341Z,52.15
2022-12-16T06:18:26.993Z,49.85
2022-12-16T06:24:07.642Z,52.47
2022-12-16T06:29:48.423Z,39.97
2022-12-16T06:32:38.941Z,49.85
2022-12-16T06:35:29.610Z,54.67
2022-12-16T06:41:10.616Z,58.85
2022-12-16T06:46:51.462Z,55.50
2022-12-16T06:52:32.389Z,49.17
2022-12-16T06:55:26.315Z,52.42
2022-12-16T06:58:20.063Z,49.45
2022-12-16T07:01:10.851Z,54.85
2022-12-16T07:04:01.479Z,50.53
2022-12-16T07:09:42.883Z,50.78
2022-12-16T07:12:33.516Z,50.58
2022-12-16T07:18:14.629Z,50.65
2022-12-16T07:23:55.388Z,49.85
2022-12-16T07:26:46.454Z,50.08
2022-12-16T07:29:36.978Z,50.88
2022-12-16T07:32:27.681Z,52.88
2022-12-16T07:40:59.286Z,48.45
2022-12-16T07:43:50.029Z,51.60
2022-12-16T07:46:40.832Z,55.65
2022-12-16T07:49:31.458Z,55.83
2022-12-16T07:52:22.158Z,55.65
2022-12-16T07:55:12.806Z,56.42
2022-12-16T07:58:09.072Z,58.80
2022-12-16T08:01:10.812Z,50.80
2022-12-16T08:04:01.472Z,50.72
2022-12-16T08:09:50.000Z,51.75
2022-12-16T08:12:40.801Z,49.83
2022-12-16T08:15:31.480Z,53.42
2022-12-16T08:21:12.677Z,48.63
2022-12-16T08:24:03.381Z,50.90
2022-12-16T08:26:54.043Z,51.13
2022-12-16T08:29:45.949Z,49.25
2022-12-16T08:32:36.750Z,53.33
2022-12-16T08:38:17.689Z,52.28
2022-12-16T08:41:09.312Z,52.20
2022-12-16T08:44:00.091Z,56.45
2022-12-16T08:46:50.814Z,56.40
2022-12-16T08:49:41.665Z,53.70
2022-12-16T08:52:32.385Z,51.78
2022-12-16T08:55:27.826Z,52.38
2022-12-16T08:58:20.085Z,51.08
2022-12-16T09:01:10.875Z,51.03
2022-12-16T09:04:01.610Z,51.05
2022-12-16T09:06:52.441Z,53.33
2022-12-16T09:12:33.113Z,51.60
2022-12-16T09:18:14.305Z,55.50
2022-12-16T09:21:05.245Z,51.30
2022-12-16T09:23:55.808Z,52.03
2022-12-16T09:26:47.620Z,52.90
2022-12-16T09:29:43.468Z,57.70
2022-12-16T09:32:35.469Z,59.70
2022-12-16T09:35:26.139Z,57.05
2022-12-16T09:41:06.964Z,49.15
2022-12-16T09:47:12.553Z,50.20
2022-12-16T09:50:02.732Z,47.55
2022-12-16T09:53:00.792Z,50.92
2022-12-16T09:55:59.722Z,51.90
2022-12-16T09:59:07.586Z,51.17
2022-12-16T10:01:59.065Z,50.47
2022-12-16T10:04:49.864Z,53.50
2022-12-16T10:11:12.515Z,47.75
2022-12-16T10:14:17.779Z,47.28
2022-12-16T10:17:09.864Z,47.47
2022-12-16T10:20:18.101Z,50.72
2022-12-16T10:23:18.991Z,48.92
2022-12-16T10:26:23.849Z,45.35
2022-12-16T10:29:41.814Z,42.97
2022-12-16T10:32:57.183Z,46.15
2022-12-16T10:35:56.456Z,50.05
2022-12-16T10:39:02.510Z,46.78
2022-12-16T10:41:59.298Z,47.42
2022-12-16T10:45:11.215Z,46.78
2022-12-16T10:48:01.912Z,45.67
2022-12-16T10:53:47.240Z,46.22
2022-12-16T10:57:11.975Z,44.88
2022-12-16T11:00:02.531Z,43.20
2022-12-16T11:02:53.323Z,46.85
2022-12-16T11:05:51.393Z,45.05
2022-12-16T11:08:47.289Z,39.60
2022-12-16T11:11:48.573Z,40.85
2022-12-16T11:14:50.329Z,43.75
2022-12-16T11:17:52.211Z,43.58
2022-12-16T11:20:45.085Z,41.40
2022-12-16T11:23:41.914Z,41.17
2022-12-16T11:26:37.219Z,37.72
2022-12-16T11:29:35.341Z,41.78
2022-12-16T11:32:45.680Z,41.70
2022-12-16T11:35:40.330Z,40.92
2022-12-16T11:38:44.764Z,42.22
2022-12-16T11:41:47.026Z,41.17
2022-12-16T11:44:56.232Z,40.95
2022-12-16T11:48:01.718Z,36.58
2022-12-16T11:50:56.910Z,40.03
2022-12-16T11:54:07.249Z,42.13
2022-12-16T11:57:01.602Z,41.08
2022-12-16T11:59:57.509Z,38.85
2022-12-16T12:03:21.034Z,39.80
2022-12-16T12:06:34.930Z,40.85
2022-12-16T12:09:40.999Z,39.17
2022-12-16T12:13:17.105Z,40.42
2022-12-16T12:16:43.285Z,37.15
2022-12-16T12:19:57.524Z,42.65
2022-12-16T12:22:58.705Z,38.45
2022-12-16T12:26:04.187Z,41.38
2022-12-16T12:29:14.624Z,39.97
2022-12-16T12:32:31.742Z,39.15
2022-12-16T12:35:51.837Z,42.03
2022-12-16T12:38:59.018Z,39.77
2022-12-16T12:42:18.813Z,39.83
2022-12-16T12:45:57.410Z,34.88
2022-12-16T12:49:00.817Z,35.05
2022-12-16T12:52:28.121Z,38.67
2022-12-16T12:55:56.410Z,37.60
2022-12-16T12:58:49.255Z,37.85
2022-12-16T13:01:44.331Z,37.35
2022-12-16T13:04:38.760Z,35.65
2022-12-16T13:07:29.520Z,36.83
2022-12-16T13:13:49.273Z,36.13
2022-12-16T13:17:04.541Z,37.53
2022-12-16T13:20:02.987Z,37.08
2022-12-16T13:22:55.235Z,39.30
2022-12-16T13:26:12.475Z,37.88
2022-12-16T13:29:28.317Z,38.85
2022-12-16T13:32:23.476Z,37.40
2022-12-16T13:35:24.064Z,34.95
2022-12-16T13:38:38.347Z,35.42
2022-12-16T13:41:48.803Z,35.10
2022-12-16T13:45:01.072Z,34.13
2022-12-16T13:48:00.501Z,34.25
2022-12-16T13:51:05.666Z,36.63
2022-12-16T13:54:01.847Z,34.90
2022-12-16T13:57:07.752Z,34.42
2022-12-16T14:00:00.361Z,33.88
2022-12-16T14:03:01.408Z,32.38
2022-12-16T14:05:56.528Z,31.23
2022-12-16T14:08:53.632Z,30.77
2022-12-16T14:12:16.716Z,32.00
2022-12-16T14:15:25.937Z,33.88
2022-12-16T14:18:44.525Z,34.30
2022-12-16T14:21:57.436Z,34.08
2022-12-16T14:24:49.059Z,30.63
2022-12-16T14:27:41.343Z,32.20
2022-12-16T14:30:44.773Z,33.30
2022-12-16T14:33:43.108Z,32.10
2022-12-16T14:36:44.900Z,34.50
2022-12-16T14:39:49.903Z,36.10
2022-12-16T14:42:48.336Z,34.22
2022-12-16T14:45:47.869Z,34.00
2022-12-16T14:48:50.073Z,33.53
2022-12-16T14:51:48.829Z,33.05
2022-12-16T14:54:55.304Z,32.85
2022-12-16T14:57:48.445Z,35.22
2022-12-16T15:00:42.774Z,35.47
2022-12-16T15:03:49.564Z,36.58
2022-12-16T15:06:48.826Z,37.17
2022-12-16T15:09:49.026Z,37.17
2022-12-16T15:12:44.326Z,28.95
2022-12-16T15:16:00.428Z,38.13
2022-12-16T15:19:01.225Z,37.80
2022-12-16T15:24:49.947Z,36.70
2022-12-16T15:27:40.212Z,39.05
2022-12-16T15:31:01.678Z,38.67
2022-12-16T15:33:55.399Z,38.53
2022-12-16T15:36:50.195Z,41.45
2022-12-16T15:39:48.037Z,42.95
2022-12-16T15:42:41.395Z,45.38
2022-12-16T15:45:45.006Z,45.05
2022-12-16T15:48:53.047Z,40.78
2022-12-16T15:51:50.347Z,44.47
2022-12-16T15:54:42.754Z,41.85
2022-12-16T15:57:47.561Z,43.50
2022-12-16T16:00:42.985Z,41.10
2022-12-16T16:03:44.421Z,40.67
2022-12-16T16:06:43.270Z,43.20
2022-12-16T16:09:44.496Z,41.22
2022-12-16T16:12:37.264Z,39.83
2022-12-16T16:15:30.804Z,40.38
2022-12-16T16:18:25.091Z,42.15
2022-12-16T16:21:16.158Z,39.40
2022-12-16T16:24:06.736Z,36.92
2022-12-16T16:26:57.582Z,40.08
2022-12-16T16:29:48.499Z,41.65
2022-12-16T16:32:55.847Z,40.58
2022-12-16T16:35:46.928Z,39.53
2022-12-16T16:38:37.501Z,39.72
2022-12-16T16:41:33.887Z,37.08
2022-12-16T16:44:24.725Z,36.95
2022-12-16T16:47:16.491Z,37.95
2022-12-16T16:50:07.507Z,37.88
2022-12-16T16:52:58.144Z,44.03
2022-12-16T16:55:48.739Z,39.95
2022-12-16T16:58:44.511Z,41.05
2022-12-16T17:01:51.214Z,40.40
2022-12-16T17:04:42.251Z,43.63
2022-12-16T17:07:33.045Z,41.70
2022-12-16T17:13:13.686Z,40.53
2022-12-16T17:16:06.824Z,40.40
2022-12-16T17:18:57.630Z,43.20
2022-12-16T17:24:44.901Z,39.42
2022-12-16T17:27:40.318Z,45.65
2022-12-16T17:30:46.497Z,47.28
2022-12-16T17:33:38.441Z,48.90
2022-12-16T17:36:34.053Z,45.75
2022-12-16T17:39:25.243Z,44.55
2022-12-16T17:42:16.395Z,45.28
2022-12-16T17:45:07.098Z,47.28
2022-12-16T17:50:48.193Z,45.47
2022-12-16T17:53:38.819Z,46.47
2022-12-16T17:56:29.509Z,41.97
2022-12-16T18:02:27.331Z,41.10
2022-12-16T18:05:17.767Z,42.28
2022-12-16T18:08:08.468Z,40.75
2022-12-16T18:13:49.764Z,37.60
2022-12-16T18:16:40.479Z,31.15
2022-12-16T18:19:33.904Z,41.53
2022-12-16T18:22:24.548Z,41.55
2022-12-16T18:25:15.149Z,41.28
2022-12-16T18:30:56.286Z,39.15
2022-12-16T18:33:47.460Z,36.03
2022-12-16T18:36:38.312Z,39.40
2022-12-16T18:39:31.025Z,40.35
2022-12-16T18:42:21.784Z,42.33
2022-12-16T18:45:12.605Z,37.53
2022-12-16T18:50:53.405Z,35.25
2022-12-16T18:53:47.057Z,36.90
2022-12-16T18:56:37.787Z,38.50
2022-12-16T19:02:18.588Z,35.00
2022-12-16T19:05:09.123Z,35.67
2022-12-16T19:07:59.920Z,36.13
2022-12-16T19:10:50.690Z,35.05
2022-12-16T19:13:42.398Z,36.28
2022-12-16T19:16:33.287Z,35.20
2022-12-16T19:19:24.068Z,33.30
2022-12-16T19:25:05.429Z,34.00
2022-12-16T19:27:56.436Z,35.53
2022-12-16T19:30:47.454Z,35.00
2022-12-16T19:33:38.331Z,37.72
2022-12-16T19:36:28.648Z,36.22
2022-12-16T19:39:19.365Z,33.70
2022-12-16T19:42:10.109Z,34.72
2022-12-16T19:47:51.616Z,32.30
2022-12-16T19:50:42.380Z,35.88
2022-12-16T19:56:23.462Z,35.38
2022-12-16T20:02:11.403Z,38.90
2022-12-16T20:05:01.960Z,36.20
2022-12-16T20:07:52.696Z,37.50
2022-12-16T20:10:46.688Z,38.00
2022-12-16T20:13:37.363Z,39.60
2022-12-16T20:16:30.643Z,40.85
2022-12-16T20:19:21.302Z,36.13
2022-12-16T20:25:22.533Z,36.58
2022-12-16T20:28:13.357Z,37.00
2022-12-16T20:31:04.087Z,38.25
2022-12-16T20:36:51.797Z,41.97
2022-12-16T20:39:44.665Z,42.03
2022-12-16T20:42:39.041Z,38.90
2022-12-16T20:45:34.540Z,40.97
2022-12-16T20:48:25.423Z,41.83
2022-12-16T20:54:29.520Z,38.40
2022-12-16T20:57:20.276Z,38.20
2022-12-16T21:03:01.031Z,39.78
2022-12-16T21:05:57.303Z,38.17
2022-12-16T21:08:47.937Z,38.20
2022-12-16T21:11:38.601Z,39.65
2022-12-16T21:17:19.698Z,37.25
2022-12-16T21:20:10.552Z,35.00
2022-12-16T21:23:01.257Z,35.88
2022-12-16T21:28:42.088Z,37.42
2022-12-16T21:31:33.027Z,37.20
2022-12-16T21:34:23.482Z,38.35
2022-12-16T21:37:15.156Z,36.47
2022-12-16T21:40:05.769Z,38.42
2022-12-16T21:42:56.644Z,36.50
2022-12-16T21:45:47.405Z,36.40
2022-12-16T21:51:28.308Z,35.60
2022-12-16T21:57:12.420Z,35.03
2022-12-16T22:00:03.133Z,36.97
2022-12-16T22:02:53.857Z,36.85
2022-12-16T22:08:34.839Z,36.72
2022-12-16T22:14:27.144Z,36.80
2022-12-16T22:20:08.110Z,33.85
2022-12-16T22:22:59.878Z,37.22
2022-12-16T22:25:50.905Z,35.78
2022-12-16T22:28:43.938Z,36.13
2022-12-16T22:34:25.046Z,37.83
2022-12-16T22:37:15.931Z,39.75
2022-12-16T22:40:06.591Z,37.88
2022-12-16T22:45:47.536Z,35.25
2022-12-16T22:48:38.765Z,37.05
2022-12-16T22:51:33.929Z,32.78
2022-12-16T22:54:24.717Z,42.35
2022-12-16T22:57:15.384Z,43.22
2022-12-16T23:02:56.134Z,36.10
2022-12-16T23:05:47.265Z,45.33
2022-12-16T23:08:37.932Z,41.78
2022-12-16T23:14:25.959Z,39.20
2022-12-16T23:17:16.801Z,39.75
2022-12-16T23:20:07.497Z,38.42
2022-12-16T23:25:48.007Z,40.20
2022-12-16T23:28:38.686Z,40.42
2022-12-16T23:34:19.888Z,39.88
2022-12-16T23:37:10.488Z,40.47
2022-12-16T23:40:01.372Z,35.03
2022-12-16T23:42:52.052Z,39.53
2022-12-16T23:48:33.116Z,41.22
2022-12-16T23:54:14.185Z,42.88
2022-12-16T23:59:55.142Z,42.55
